createdAt,value
2023-05-09T00:02:23.730Z,22.37
2023-05-09T00:04:51.590Z,23.60
2023-05-09T00:07:18.506Z,23.43
2023-05-09T00:09:45.460Z,22.30
2023-05-09T00:12:12.461Z,23.53
2023-05-09T00:14:40.723Z,22.63
2023-05-09T00:17:07.848Z,21.77
2023-05-09T00:19:34.727Z,21.50
2023-05-09T00:22:01.595Z,21.27
2023-05-09T00:24:28.433Z,19.37
2023-05-09T00:26:55.336Z,20.07
2023-05-09T00:29:22.109Z,20.17
2023-05-09T00:31:49.027Z,20.97
2023-05-09T00:34:15.906Z,21.50
2023-05-09T00:36:42.831Z,19.90
2023-05-09T00:39:09.850Z,20.93
2023-05-09T00:41:36.811Z,20.73
2023-05-09T00:44:03.696Z,23.53
2023-05-09T00:46:31.002Z,20.83
2023-05-09T00:48:57.953Z,22.73
2023-05-09T00:51:25.926Z,23.30
2023-05-09T00:53:53.049Z,21.00
2023-05-09T00:56:19.910Z,22.33
2023-05-09T00:58:46.862Z,21.87
2023-05-09T01:01:13.939Z,22.03
2023-05-09T01:03:41.740Z,21.83
2023-05-09T01:06:27.307Z,22.70
2023-05-09T01:09:09.941Z,24.47
2023-05-09T01:11:53.861Z,22.37
2023-05-09T01:14:20.739Z,24.47
2023-05-09T01:17:10.839Z,24.27
2023-05-09T01:20:13.323Z,22.53
2023-05-09T01:22:46.673Z,25.10
2023-05-09T01:25:57.075Z,23.50
2023-05-09T01:28:34.644Z,24.20
2023-05-09T01:31:04.391Z,25.87
2023-05-09T01:33:33.839Z,23.33
2023-05-09T01:36:04.988Z,25.47
2023-05-09T01:38:32.887Z,24.77
2023-05-09T01:41:02.363Z,26.13
2023-05-09T01:43:30.893Z,26.53
2023-05-09T01:45:59.574Z,27.17
2023-05-09T01:48:30.103Z,26.73
2023-05-09T01:50:58.233Z,27.20
2023-05-09T01:53:28.079Z,28.37
2023-05-09T01:55:56.151Z,25.40
2023-05-09T01:58:25.778Z,26.73
2023-05-09T02:00:53.537Z,26.77
2023-05-09T02:03:21.491Z,25.97
2023-05-09T02:05:50.068Z,28.53
2023-05-09T02:08:21.134Z,28.30
2023-05-09T02:10:49.655Z,27.77
2023-05-09T02:13:16.538Z,28.47
2023-05-09T02:15:44.402Z,27.27
2023-05-09T02:18:11.312Z,27.60
2023-05-09T02:20:38.160Z,29.70
2023-05-09T02:23:05.261Z,27.57
2023-05-09T02:25:34.096Z,27.70
2023-05-09T02:28:02.241Z,28.87
2023-05-09T02:30:35.435Z,27.10
2023-05-09T02:33:07.128Z,28.20
2023-05-09T02:35:35.285Z,28.03
2023-05-09T02:38:02.479Z,30.77
2023-05-09T02:40:30.705Z,29.37
2023-05-09T02:42:57.935Z,29.80
2023-05-09T02:45:25.130Z,30.13
2023-05-09T02:47:52.161Z,32.90
2023-05-09T02:50:19.172Z,30.20
2023-05-09T02:52:46.258Z,32.43
2023-05-09T02:55:13.383Z,31.20
2023-05-09T02:57:42.075Z,26.43
2023-05-09T03:00:09.731Z,25.43
2023-05-09T03:02:37.577Z,26.67
2023-05-09T03:05:06.960Z,22.83
2023-05-09T03:07:35.860Z,24.53
2023-05-09T03:10:03.635Z,23.33
2023-05-09T03:12:31.661Z,24.33
2023-05-09T03:14:58.643Z,24.70
2023-05-09T03:17:25.579Z,24.13
2023-05-09T03:19:52.467Z,23.70
2023-05-09T03:22:20.826Z,24.27
2023-05-09T03:24:55.222Z,23.17
2023-05-09T03:27:22.155Z,20.50
2023-05-09T03:29:50.208Z,21.97
2023-05-09T03:32:18.863Z,24.53
2023-05-09T03:34:46.340Z,18.80
2023-05-09T03:37:13.389Z,20.17
2023-05-09T03:39:41.346Z,18.33
2023-05-09T03:42:08.276Z,17.90
2023-05-09T03:44:35.188Z,17.40
2023-05-09T03:47:02.157Z,16.13
2023-05-09T03:49:36.294Z,17.53
2023-05-09T03:52:03.598Z,18.50
2023-05-09T03:54:30.853Z,18.63
2023-05-09T03:56:57.737Z,19.13
2023-05-09T03:59:26.068Z,18.33
2023-05-09T04:01:53.912Z,18.10
2023-05-09T04:04:23.615Z,16.93
2023-05-09T04:06:50.621Z,17.87
2023-05-09T04:09:18.312Z,17.90
2023-05-09T04:11:46.849Z,20.30
2023-05-09T04:14:15.412Z,18.03
2023-05-09T04:16:42.654Z,16.97
2023-05-09T04:19:09.869Z,19.10
2023-05-09T04:21:36.738Z,20.70
2023-05-09T04:24:05.154Z,26.47
2023-05-09T04:26:42.416Z,24.20
2023-05-09T04:29:12.539Z,22.00
2023-05-09T04:31:40.063Z,23.97
2023-05-09T04:34:09.831Z,22.63
2023-05-09T04:36:38.276Z,22.87
2023-05-09T04:39:05.735Z,23.57
2023-05-09T04:41:34.805Z,24.40
2023-05-09T04:44:02.077Z,25.17
2023-05-09T04:46:29.723Z,23.37
2023-05-09T04:48:57.475Z,22.53
2023-05-09T04:51:24.398Z,20.27
2023-05-09T04:53:51.728Z,21.60
2023-05-09T04:56:21.887Z,22.90
2023-05-09T04:58:49.320Z,21.13
2023-05-09T05:01:16.807Z,21.43
2023-05-09T05:03:44.459Z,22.77
2023-05-09T05:06:11.484Z,21.67
2023-05-09T05:08:41.008Z,21.07
2023-05-09T05:11:08.851Z,24.87
2023-05-09T05:13:35.786Z,21.90
2023-05-09T05:16:02.645Z,23.40
2023-05-09T05:18:29.611Z,21.53
2023-05-09T05:20:56.638Z,20.97
2023-05-09T05:23:25.235Z,22.53
2023-05-09T05:25:54.183Z,20.23
2023-05-09T05:28:21.126Z,20.90
2023-05-09T05:30:48.094Z,21.20
2023-05-09T05:33:15.116Z,20.93
2023-05-09T05:35:41.928Z,21.07
2023-05-09T05:38:09.144Z,19.90
2023-05-09T05:40:36.574Z,20.67
2023-05-09T05:43:05.654Z,20.33
2023-05-09T05:45:34.077Z,21.33
2023-05-09T05:48:05.134Z,25.03
2023-05-09T05:50:32.679Z,23.37
2023-05-09T05:52:59.891Z,22.37
2023-05-09T05:55:26.926Z,21.33
2023-05-09T05:57:53.830Z,21.50
2023-05-09T06:00:20.898Z,20.63
2023-05-09T06:02:54.522Z,22.87
2023-05-09T06:05:29.442Z,23.23
2023-05-09T06:07:56.450Z,22.10
2023-05-09T06:10:23.276Z,23.63
2023-05-09T06:12:50.155Z,26.90
2023-05-09T06:15:17.679Z,21.30
2023-05-09T06:17:47.393Z,20.87
2023-05-09T06:20:14.302Z,21.73
2023-05-09T06:22:41.252Z,23.47
2023-05-09T06:25:10.570Z,20.43
2023-05-09T06:27:38.003Z,21.93
2023-05-09T06:30:14.234Z,20.93
2023-05-09T06:32:51.335Z,20.73
2023-05-09T06:35:18.327Z,21.40
2023-05-09T06:37:47.698Z,19.87
2023-05-09T06:40:16.228Z,21.33
2023-05-09T06:42:43.093Z,19.27
2023-05-09T06:45:10.481Z,21.23
2023-05-09T06:47:37.428Z,19.03
2023-05-09T06:50:04.735Z,20.97
2023-05-09T06:52:31.586Z,19.13
2023-05-09T06:54:58.425Z,20.50
2023-05-09T06:57:25.430Z,18.77
2023-05-09T06:59:52.286Z,19.23
2023-05-09T07:02:19.374Z,19.77
2023-05-09T07:04:46.289Z,18.97
2023-05-09T07:07:13.193Z,18.37
2023-05-09T07:09:40.046Z,16.13
2023-05-09T07:12:07.037Z,16.30
2023-05-09T07:14:33.922Z,16.23
2023-05-09T07:17:18.238Z,16.50
2023-05-09T07:19:47.598Z,16.83
2023-05-09T07:22:14.675Z,16.23
2023-05-09T07:24:41.760Z,19.03
2023-05-09T07:27:08.634Z,17.73
2023-05-09T07:29:36.000Z,15.63
2023-05-09T07:32:03.062Z,17.17
2023-05-09T07:34:29.965Z,15.90
2023-05-09T07:36:58.779Z,16.40
2023-05-09T07:39:25.706Z,18.00
2023-05-09T07:41:52.640Z,15.47
2023-05-09T07:44:19.526Z,17.03
2023-05-09T07:46:46.460Z,15.17
2023-05-09T07:49:13.328Z,16.87
2023-05-09T07:51:40.251Z,16.43
2023-05-09T07:54:07.267Z,16.70
2023-05-09T07:56:34.182Z,15.33
2023-05-09T07:59:01.664Z,14.97
2023-05-09T08:05:27.799Z,16.80
2023-05-09T08:07:54.733Z,14.83
2023-05-09T08:10:23.018Z,14.03
2023-05-09T08:12:49.900Z,14.67
2023-05-09T08:15:16.943Z,14.00
2023-05-09T08:17:44.276Z,14.63
2023-05-09T08:20:11.982Z,13.07
2023-05-09T08:22:39.950Z,13.73
2023-05-09T08:25:10.428Z,14.07
2023-05-09T08:27:37.523Z,12.87
2023-05-09T08:30:05.263Z,12.70
2023-05-09T08:32:32.133Z,13.17
2023-05-09T08:34:58.954Z,12.67
2023-05-09T08:37:27.438Z,11.83
2023-05-09T08:39:54.281Z,12.47
2023-05-09T08:42:25.532Z,13.10
2023-05-09T08:44:53.219Z,10.37
2023-05-09T08:47:21.241Z,8.77
2023-05-09T08:49:49.370Z,9.20
2023-05-09T08:52:16.656Z,10.40
2023-05-09T08:54:44.129Z,8.47
2023-05-09T08:57:11.017Z,8.57
2023-05-09T08:59:40.278Z,8.90
2023-05-09T09:02:07.872Z,9.20
2023-05-09T09:04:34.776Z,9.03
2023-05-09T09:07:05.841Z,8.10
2023-05-09T09:09:35.825Z,8.33
2023-05-09T09:12:06.602Z,8.73
2023-05-09T09:14:39.196Z,8.97
2023-05-09T09:17:08.021Z,8.70
2023-05-09T09:19:37.079Z,11.20
2023-05-09T09:22:05.080Z,11.47
2023-05-09T09:24:32.498Z,10.43
2023-05-09T09:27:06.296Z,11.97
2023-05-09T09:29:33.919Z,12.57
2023-05-09T09:32:05.991Z,11.30
2023-05-09T09:34:33.005Z,12.73
2023-05-09T09:36:59.858Z,10.30
2023-05-09T09:39:26.709Z,11.13
2023-05-09T09:41:54.061Z,9.97
2023-05-09T09:44:22.759Z,11.83
2023-05-09T09:46:55.140Z,8.27
2023-05-09T09:49:24.461Z,9.43
2023-05-09T11:43:19.016Z,8.03
2023-05-09T11:45:46.605Z,7.37
2023-05-09T11:48:13.566Z,6.90
2023-05-09T11:50:41.671Z,7.43
2023-05-09T11:53:12.381Z,7.17
2023-05-09T11:55:41.518Z,6.57
2023-05-09T11:58:09.196Z,6.93
2023-05-09T12:00:37.530Z,6.73
2023-05-09T12:03:06.105Z,7.70
2023-05-09T12:05:33.171Z,6.63
2023-05-09T12:08:04.765Z,6.57
2023-05-09T12:10:31.716Z,6.57
2023-05-09T12:12:58.704Z,6.07
2023-05-09T12:15:25.588Z,6.70
2023-05-09T12:18:07.043Z,6.70
2023-05-09T12:20:41.782Z,6.83
2023-05-09T12:23:14.351Z,7.23
2023-05-09T12:25:55.589Z,6.80
2023-05-09T12:28:26.293Z,7.00
2023-05-09T12:30:54.274Z,6.50
2023-05-09T12:33:21.742Z,9.03
2023-05-09T12:36:00.662Z,7.47
2023-05-09T12:38:27.605Z,7.40
2023-05-09T12:41:05.248Z,6.73
2023-05-09T12:43:33.784Z,6.77
2023-05-09T12:46:02.443Z,7.63
2023-05-09T12:48:30.640Z,7.47
2023-05-09T12:51:02.122Z,7.57
2023-05-09T12:53:31.703Z,7.07
2023-05-09T12:56:11.339Z,7.87
2023-05-09T12:58:38.887Z,7.70
2023-05-09T13:01:06.166Z,7.70
2023-05-09T13:03:37.772Z,8.37
2023-05-09T13:06:10.407Z,7.90
2023-05-09T13:08:37.541Z,7.20
2023-05-09T13:11:15.388Z,10.13
2023-05-09T13:13:43.914Z,8.87
2023-05-09T13:16:12.182Z,8.00
2023-05-09T13:18:40.981Z,7.80
2023-05-09T13:21:07.835Z,7.10
2023-05-09T13:23:34.635Z,7.60
2023-05-09T13:26:01.481Z,8.43
2023-05-09T13:28:28.365Z,8.50
2023-05-09T13:30:55.279Z,10.47
2023-05-09T13:33:25.837Z,8.53
2023-05-09T13:35:53.694Z,8.30
2023-05-09T13:38:20.795Z,9.53
2023-05-09T13:40:47.589Z,8.23
2023-05-09T13:43:14.386Z,10.40
2023-05-09T13:45:41.267Z,8.67
2023-05-09T13:48:08.227Z,8.93
2023-05-09T13:50:35.158Z,8.30
2023-05-09T13:53:01.984Z,7.40
2023-05-09T13:55:29.731Z,8.77
2023-05-09T13:57:57.017Z,8.23
2023-05-09T14:00:26.618Z,9.33
2023-05-09T14:02:53.653Z,9.77
2023-05-09T14:05:20.547Z,8.60
2023-05-09T14:07:47.552Z,11.47
2023-05-09T14:10:14.514Z,8.83
2023-05-09T14:12:44.299Z,12.03
2023-05-09T14:15:11.405Z,11.33
2023-05-09T14:17:38.419Z,10.63
2023-05-09T14:20:06.643Z,9.17
2023-05-09T14:22:33.501Z,9.93
2023-05-09T14:25:00.379Z,9.17
2023-05-09T14:27:27.534Z,8.53
2023-05-09T14:29:54.413Z,9.57
2023-05-09T14:32:21.475Z,8.90
2023-05-09T14:34:49.626Z,9.77
2023-05-09T14:37:16.886Z,12.77
2023-05-09T14:39:45.523Z,11.47
2023-05-09T14:42:13.965Z,9.90
2023-05-09T14:44:41.515Z,10.10
2023-05-09T14:47:09.593Z,10.87
2023-05-09T14:49:39.752Z,9.27
2023-05-09T14:52:06.615Z,10.37
2023-05-09T14:54:33.636Z,9.47
2023-05-09T14:57:02.093Z,8.60
2023-05-09T14:59:29.495Z,9.90
2023-05-09T15:01:56.302Z,9.33
2023-05-09T15:04:25.428Z,8.67
2023-05-09T15:06:52.282Z,8.77
2023-05-09T15:09:19.386Z,8.43
2023-05-09T15:11:48.782Z,8.87
2023-05-09T15:14:16.710Z,8.30
2023-05-09T15:16:44.003Z,8.10
2023-05-09T15:19:11.062Z,8.53
2023-05-09T15:21:37.968Z,7.70
2023-05-09T15:24:05.538Z,8.13
2023-05-09T15:26:32.635Z,15.03
2023-05-09T15:28:59.611Z,8.03
2023-05-09T15:31:26.605Z,9.17
2023-05-09T15:33:53.591Z,9.67
2023-05-09T15:36:20.430Z,9.33
2023-05-09T15:38:49.487Z,8.73
2023-05-09T15:41:17.102Z,8.93
2023-05-09T15:43:44.149Z,9.30
2023-05-09T15:46:11.174Z,9.10
2023-05-09T15:48:38.082Z,8.67
2023-05-09T15:51:05.160Z,10.27
2023-05-09T15:53:32.114Z,9.13
2023-05-09T15:55:58.971Z,9.07
2023-05-09T15:58:25.775Z,9.10
2023-05-09T16:00:52.620Z,9.40
2023-05-09T16:03:19.836Z,9.60
2023-05-09T16:05:46.942Z,9.97
2023-05-09T16:08:14.470Z,9.20
2023-05-09T16:10:41.282Z,11.63
2023-05-09T16:13:08.291Z,10.13
2023-05-09T16:15:35.579Z,10.57
2023-05-09T16:18:02.407Z,8.87
2023-05-09T16:20:29.237Z,10.87
2023-05-09T16:22:56.076Z,11.90
2023-05-09T16:25:22.892Z,9.87
2023-05-09T16:27:49.775Z,9.07
2023-05-09T16:30:16.969Z,8.53
2023-05-09T16:32:44.688Z,7.90
2023-05-09T16:35:12.517Z,9.67
2023-05-09T16:37:39.273Z,9.10
2023-05-09T16:40:06.764Z,8.70
2023-05-09T16:42:33.633Z,7.43
2023-05-09T16:45:00.483Z,8.93
2023-05-09T16:47:27.301Z,7.47
2023-05-09T16:49:54.445Z,7.43
2023-05-09T16:52:23.064Z,9.07
2023-05-09T16:54:50.432Z,6.70
2023-05-09T16:57:17.246Z,7.87
2023-05-09T16:59:44.086Z,6.60
2023-05-09T17:02:10.925Z,8.60
2023-05-09T17:04:38.003Z,6.83
2023-05-09T17:07:04.959Z,6.87
2023-05-09T17:09:32.483Z,7.87
2023-05-09T17:12:00.520Z,6.07
2023-05-09T17:14:27.553Z,6.03
2023-05-09T17:16:54.564Z,5.50
2023-05-09T17:19:23.469Z,6.10
2023-05-09T17:21:50.724Z,5.20
2023-05-09T17:24:17.905Z,5.00
2023-05-09T17:26:44.851Z,5.67
2023-05-09T17:29:11.676Z,5.27
2023-05-09T17:31:38.530Z,5.57
2023-05-09T17:34:05.773Z,5.43
2023-05-09T17:36:33.756Z,6.33
2023-05-09T17:39:00.898Z,6.20
2023-05-09T17:41:27.986Z,6.40
2023-05-09T17:43:57.272Z,5.60
2023-05-09T17:46:24.866Z,6.10
2023-05-09T17:48:51.889Z,5.27
2023-05-09T17:51:18.774Z,5.47
2023-05-09T17:53:46.740Z,5.40
2023-05-09T17:56:13.672Z,5.70
2023-05-09T17:58:40.573Z,5.77
2023-05-09T18:01:07.713Z,7.63
2023-05-09T18:03:34.817Z,7.40
2023-05-09T18:06:01.949Z,5.43
2023-05-09T18:08:29.825Z,5.00
2023-05-09T18:10:57.744Z,5.37
2023-05-09T18:13:24.858Z,5.93
2023-05-09T18:15:54.032Z,5.57
2023-05-09T18:18:22.275Z,5.30
2023-05-09T18:20:49.238Z,5.40
2023-05-09T18:23:16.306Z,5.57
2023-05-09T18:25:43.132Z,6.03
2023-05-09T18:28:10.968Z,6.63
2023-05-09T18:30:38.833Z,6.53
2023-05-09T18:33:05.865Z,7.13
2023-05-09T18:35:33.008Z,7.30
2023-05-09T18:37:59.867Z,6.77
2023-05-09T18:40:27.106Z,5.90
2023-05-09T18:42:53.885Z,8.53
2023-05-09T18:45:20.820Z,6.43
2023-05-09T18:47:47.697Z,6.40
2023-05-09T18:50:15.011Z,6.83
2023-05-09T18:52:44.329Z,6.30
2023-05-09T18:55:11.530Z,5.37
2023-05-09T18:57:38.362Z,4.97
2023-05-09T19:00:05.601Z,5.20
2023-05-09T19:02:32.426Z,4.47
2023-05-09T19:05:00.774Z,3.83
2023-05-09T19:07:27.757Z,3.77
2023-05-09T19:09:54.559Z,4.17
2023-05-09T19:12:21.388Z,5.57
2023-05-09T19:14:48.211Z,5.97
2023-05-09T19:17:15.024Z,4.93
2023-05-09T19:19:42.022Z,5.87
2023-05-09T19:22:08.904Z,6.93
2023-05-09T19:24:35.869Z,5.53
2023-05-09T19:27:02.832Z,4.70
2023-05-09T19:29:29.750Z,3.50
2023-05-09T19:31:56.548Z,6.10
2023-05-09T19:34:23.936Z,4.47
2023-05-09T19:36:50.787Z,4.23
2023-05-09T19:39:17.580Z,3.77
2023-05-09T19:41:44.419Z,3.77
2023-05-09T19:44:11.262Z,5.03
2023-05-09T19:46:42.806Z,3.47
2023-05-09T19:49:13.263Z,3.70
2023-05-09T19:51:40.485Z,3.27
2023-05-09T19:54:07.345Z,2.73
2023-05-09T19:56:34.291Z,3.10
2023-05-09T19:59:01.139Z,2.77
2023-05-09T20:01:28.352Z,3.77
2023-05-09T20:03:56.657Z,3.93
2023-05-09T20:06:25.322Z,2.77
2023-05-09T20:08:52.184Z,4.60
2023-05-09T20:11:18.977Z,2.67
2023-05-09T20:13:45.829Z,3.27
2023-05-09T20:16:12.757Z,7.17
2023-05-09T20:18:39.764Z,4.50
2023-05-09T20:21:09.650Z,4.67
2023-05-09T20:23:37.037Z,2.43
2023-05-09T20:26:03.924Z,2.30
2023-05-09T20:28:30.689Z,3.63
2023-05-09T20:30:57.541Z,3.03
2023-05-09T20:33:24.435Z,3.73
2023-05-09T20:35:51.269Z,2.57
2023-05-09T20:38:18.388Z,1.93
2023-05-09T20:40:45.179Z,3.80
2023-05-09T20:43:11.921Z,1.87
2023-05-09T20:45:38.915Z,2.60
2023-05-09T20:48:06.636Z,4.13
2023-05-09T20:50:33.548Z,2.20
2023-05-09T20:53:00.339Z,3.20
2023-05-09T20:55:27.202Z,3.23
2023-05-09T20:57:54.147Z,3.47
2023-05-09T21:00:21.087Z,2.53
2023-05-09T21:02:48.056Z,4.63
2023-05-09T21:05:14.951Z,2.57
2023-05-09T21:07:41.724Z,4.83
2023-05-09T21:10:10.259Z,1.70
2023-05-09T21:12:37.182Z,4.83
2023-05-09T21:15:04.272Z,2.93
2023-05-09T21:17:31.305Z,4.07
2023-05-09T21:19:58.107Z,1.70
2023-05-09T21:22:25.051Z,2.40
2023-05-09T21:24:51.933Z,1.83
2023-05-09T21:27:18.776Z,1.87
2023-05-09T21:29:49.126Z,3.10
2023-05-09T21:32:17.002Z,5.17
2023-05-09T21:34:43.876Z,1.87
2023-05-09T21:37:10.654Z,2.20
2023-05-09T21:39:37.520Z,1.70
2023-05-09T21:42:04.326Z,2.60
2023-05-09T21:44:31.184Z,3.93
2023-05-09T21:46:58.144Z,5.60
2023-05-09T21:49:26.840Z,1.43
2023-05-09T21:51:53.651Z,2.47
2023-05-09T21:54:21.003Z,4.37
2023-05-09T21:56:47.788Z,1.97
2023-05-09T21:59:14.606Z,2.40
2023-05-09T22:01:42.586Z,2.13
2023-05-09T22:04:11.689Z,2.37
2023-05-09T22:06:38.504Z,3.80
2023-05-09T22:09:06.581Z,1.50
2023-05-09T22:11:33.659Z,3.87
2023-05-09T22:14:00.503Z,3.70
2023-05-09T22:16:27.480Z,2.47
2023-05-09T22:18:54.431Z,2.20
2023-05-09T22:21:21.281Z,2.20
2023-05-09T22:23:48.054Z,3.00
2023-05-09T22:26:14.882Z,1.83
2023-05-09T22:28:41.648Z,2.77
2023-05-09T22:31:08.743Z,1.70
2023-05-09T22:33:35.732Z,2.83
2023-05-09T22:36:02.561Z,2.23
2023-05-09T22:38:29.352Z,2.50
2023-05-09T22:40:56.175Z,4.00
2023-05-09T22:43:24.176Z,2.07
2023-05-09T22:45:52.725Z,3.40
2023-05-09T22:48:19.569Z,1.87
2023-05-09T22:50:46.318Z,4.47
2023-05-09T22:53:13.100Z,4.07
2023-05-09T22:55:39.891Z,3.53
2023-05-09T22:58:06.739Z,2.30
2023-05-09T23:00:33.714Z,2.37
2023-05-09T23:03:00.896Z,3.80
2023-05-09T23:05:27.783Z,3.10
2023-05-09T23:07:54.721Z,3.60
2023-05-09T23:10:21.601Z,3.50
2023-05-09T23:12:48.415Z,2.63
2023-05-09T23:15:15.404Z,3.50
2023-05-09T23:17:42.200Z,2.33
2023-05-09T23:20:09.461Z,2.20
2023-05-09T23:22:36.300Z,2.70
2023-05-09T23:25:03.282Z,2.60
2023-05-09T23:27:38.724Z,3.23
2023-05-09T23:30:06.939Z,4.60
2023-05-09T23:32:33.762Z,3.57
2023-05-09T23:35:00.556Z,5.47
2023-05-09T23:37:27.331Z,4.60
2023-05-09T23:39:54.143Z,2.30
2023-05-09T23:42:20.934Z,5.10
2023-05-09T23:44:48.060Z,2.10
2023-05-09T23:47:14.798Z,5.43
2023-05-09T23:49:42.978Z,4.43
2023-05-09T23:52:09.958Z,3.00
2023-05-09T23:54:37.241Z,1.87
2023-05-09T23:57:04.141Z,2.13
2023-05-09T23:59:30.903Z,1.90
